createdAt,value
2022-10-03T00:03:18.666Z,1.88
2022-10-03T00:08:35.079Z,1.98
2022-10-03T00:14:00.648Z,1.88
2022-10-03T00:19:17.868Z,2.30
2022-10-03T00:24:23.687Z,1.92
2022-10-03T00:29:42.429Z,1.70
2022-10-03T00:34:55.337Z,2.20
2022-10-03T00:40:04.733Z,2.67
2022-10-03T00:45:39.339Z,1.70
2022-10-03T00:50:50.508Z,2.30
2022-10-03T00:56:07.018Z,1.70
2022-10-03T01:01:34.399Z,2.00
2022-10-03T01:06:49.354Z,4.15
2022-10-03T01:12:12.809Z,2.17
2022-10-03T01:17:22.798Z,2.10
2022-10-03T01:22:38.981Z,2.25
2022-10-03T01:28:26.181Z,2.25
2022-10-03T01:33:28.663Z,1.70
2022-10-03T01:38:48.164Z,1.90
2022-10-03T01:43:55.752Z,1.88
2022-10-03T01:49:21.822Z,2.08
2022-10-03T01:54:34.253Z,2.70
2022-10-03T01:59:55.554Z,2.40
2022-10-03T02:05:31.255Z,1.95
2022-10-03T02:10:48.108Z,2.00
2022-10-03T02:15:57.482Z,2.40
2022-10-03T02:21:10.339Z,4.03
2022-10-03T02:26:45.430Z,2.50
2022-10-03T02:32:19.652Z,2.33
2022-10-03T02:37:35.509Z,1.95
2022-10-03T02:42:42.091Z,2.10
2022-10-03T02:47:42.009Z,1.70
2022-10-03T02:53:17.416Z,2.17
2022-10-03T02:58:26.508Z,1.88
2022-10-03T03:03:51.088Z,2.25
2022-10-03T03:09:02.959Z,1.63
2022-10-03T03:14:15.442Z,2.38
2022-10-03T03:19:24.950Z,2.80
2022-10-03T03:24:24.960Z,2.72
2022-10-03T03:29:46.900Z,3.40
2022-10-03T03:34:56.225Z,2.65
2022-10-03T03:40:19.960Z,2.63
2022-10-03T03:46:11.504Z,3.40
2022-10-03T03:51:17.900Z,3.13
2022-10-03T03:56:27.995Z,3.25
2022-10-03T04:01:49.989Z,2.78
2022-10-03T04:07:09.008Z,2.67
2022-10-03T04:12:29.877Z,2.40
2022-10-03T04:18:13.686Z,3.03
2022-10-03T04:23:37.138Z,2.60
2022-10-03T04:29:05.485Z,2.97
2022-10-03T04:34:11.453Z,2.92
2022-10-03T04:39:21.715Z,2.90
2022-10-03T04:44:34.095Z,3.08
2022-10-03T04:50:12.625Z,2.95
2022-10-03T04:55:16.147Z,3.88
2022-10-03T05:00:41.675Z,3.63
2022-10-03T05:05:59.872Z,3.95
2022-10-03T05:11:15.859Z,3.03
2022-10-03T05:16:43.167Z,3.20
2022-10-03T05:22:09.129Z,2.88
2022-10-03T05:27:35.863Z,2.83
2022-10-03T05:32:43.748Z,4.35
2022-10-03T05:38:19.983Z,2.00
2022-10-03T05:43:36.346Z,5.45
2022-10-03T05:48:55.268Z,2.05
2022-10-03T05:54:17.275Z,1.88
2022-10-03T05:59:45.873Z,2.17
2022-10-03T06:05:27.213Z,2.05
2022-10-03T06:10:51.131Z,2.05
2022-10-03T06:16:08.421Z,1.85
2022-10-03T06:21:24.036Z,1.95
2022-10-03T06:26:37.255Z,3.10
2022-10-03T06:31:58.601Z,2.55
2022-10-03T06:37:25.091Z,2.55
2022-10-03T06:43:10.119Z,3.22
2022-10-03T06:48:51.695Z,3.25
2022-10-03T06:53:55.366Z,3.45
2022-10-03T06:59:30.082Z,2.67
2022-10-03T07:05:03.947Z,2.65
2022-10-03T07:10:45.355Z,2.50
2022-10-03T07:16:28.749Z,2.30
2022-10-03T07:21:47.455Z,2.50
2022-10-03T07:27:19.464Z,1.77
2022-10-03T07:32:20.094Z,1.98
2022-10-03T07:38:01.890Z,1.80
2022-10-03T07:48:28.798Z,1.77
2022-10-03T07:53:37.644Z,1.60
2022-10-03T07:58:52.283Z,1.83
2022-10-03T08:04:17.737Z,1.80
2022-10-03T08:09:36.638Z,2.17
2022-10-03T08:15:10.957Z,2.08
2022-10-03T08:20:29.766Z,2.22
2022-10-03T08:25:42.272Z,1.70
2022-10-03T08:31:02.501Z,2.40
2022-10-03T08:36:19.301Z,1.75
2022-10-03T08:41:41.541Z,1.50
2022-10-03T08:47:04.301Z,1.40
2022-10-03T08:52:01.446Z,1.40
2022-10-03T08:57:13.766Z,1.63
2022-10-03T09:02:35.782Z,1.10
2022-10-03T09:07:56.177Z,1.50
2022-10-03T09:13:18.064Z,1.33
2022-10-03T09:18:27.378Z,0.90
2022-10-03T09:23:50.505Z,1.00
2022-10-03T09:29:12.278Z,1.08
2022-10-03T09:34:43.230Z,1.33
2022-10-03T09:40:17.473Z,1.08
2022-10-03T09:45:32.538Z,1.00
2022-10-03T09:50:41.673Z,1.40
2022-10-03T09:56:01.884Z,1.05
2022-10-03T10:01:17.444Z,0.80
2022-10-03T10:06:29.180Z,0.70
2022-10-03T10:11:54.493Z,0.77
2022-10-03T10:17:03.725Z,0.70
2022-10-03T10:22:16.140Z,1.20
2022-10-03T10:27:35.353Z,1.13
2022-10-03T10:33:00.407Z,0.95
2022-10-03T10:38:33.251Z,0.95
2022-10-03T10:43:55.151Z,1.20
2022-10-03T10:49:15.753Z,1.42
2022-10-03T10:54:40.428Z,1.15
2022-10-03T11:00:18.334Z,1.20
2022-10-03T11:06:05.251Z,0.90
2022-10-03T11:11:02.454Z,1.00
2022-10-03T11:16:38.532Z,0.60
2022-10-03T11:22:09.796Z,0.82
2022-10-03T11:27:35.994Z,0.70
2022-10-03T11:33:01.953Z,0.63
2022-10-03T11:38:29.428Z,0.60
2022-10-03T11:44:01.900Z,0.70
2022-10-03T11:49:31.383Z,0.50
2022-10-03T11:54:37.420Z,0.60
2022-10-03T11:59:34.639Z,0.75
2022-10-03T12:05:08.392Z,0.60
2022-10-03T12:10:39.319Z,0.60
2022-10-03T12:15:59.056Z,0.73
2022-10-03T12:21:25.818Z,0.93
2022-10-03T12:26:37.697Z,0.60
2022-10-03T12:31:41.671Z,0.52
2022-10-03T12:37:17.005Z,0.70
2022-10-03T12:42:39.072Z,0.70
2022-10-03T12:48:01.605Z,0.77
2022-10-03T12:53:41.052Z,0.60
2022-10-03T12:59:07.914Z,0.60
2022-10-03T13:04:43.087Z,0.80
2022-10-03T13:10:01.695Z,0.50
2022-10-03T13:15:36.813Z,0.63
2022-10-03T13:20:48.497Z,0.50
2022-10-03T13:26:24.538Z,0.40
2022-10-03T13:31:43.530Z,0.50
2022-10-03T13:36:50.498Z,0.80
2022-10-03T13:41:59.857Z,0.77
2022-10-03T13:47:37.129Z,0.38
2022-10-03T13:52:44.792Z,0.60
2022-10-03T13:58:11.698Z,0.30
2022-10-03T14:03:33.833Z,0.60
2022-10-03T14:08:58.425Z,0.43
2022-10-03T14:14:24.349Z,0.70
2022-10-03T14:19:43.565Z,0.45
2022-10-03T14:25:29.262Z,0.50
2022-10-03T14:31:05.874Z,0.50
2022-10-03T14:36:46.886Z,0.68
2022-10-03T14:41:55.893Z,0.50
2022-10-03T14:47:11.560Z,0.60
2022-10-03T14:52:38.560Z,0.70
2022-10-03T14:58:14.720Z,0.40
2022-10-03T15:03:52.550Z,0.52
2022-10-03T15:08:58.090Z,1.02
2022-10-03T15:14:06.643Z,0.70
2022-10-03T15:19:13.379Z,0.57
2022-10-03T15:24:14.978Z,0.80
2022-10-03T15:29:16.703Z,0.70
2022-10-03T15:34:38.353Z,0.60
2022-10-03T15:39:44.101Z,0.80
2022-10-03T15:44:58.082Z,1.23
2022-10-03T15:50:19.406Z,0.63
2022-10-03T15:55:27.152Z,1.30
2022-10-03T16:00:31.342Z,1.05
2022-10-03T16:05:30.994Z,1.38
2022-10-03T16:10:41.525Z,0.90
2022-10-03T16:16:04.025Z,1.48
2022-10-03T16:21:03.359Z,1.08
2022-10-03T16:26:08.374Z,1.47
2022-10-03T16:31:28.848Z,2.00
2022-10-03T16:36:27.145Z,2.55
2022-10-03T16:41:28.649Z,2.40
2022-10-03T16:46:34.673Z,2.55
2022-10-03T16:51:57.352Z,1.95
2022-10-03T16:57:02.447Z,1.63
2022-10-03T17:02:12.114Z,1.30
2022-10-03T17:07:36.416Z,1.30
2022-10-03T17:12:39.956Z,1.67
2022-10-03T17:17:37.291Z,3.10
2022-10-03T17:22:56.047Z,5.55
2022-10-03T17:27:54.611Z,5.63
2022-10-03T17:33:01.026Z,2.78
2022-10-03T17:38:49.492Z,2.83
2022-10-03T17:44:26.587Z,2.45
2022-10-03T17:49:58.634Z,2.20
2022-10-03T17:55:04.968Z,4.38
2022-10-03T18:00:08.102Z,4.43
2022-10-03T18:05:33.587Z,4.85
2022-10-03T18:10:38.777Z,4.10
2022-10-03T18:15:47.888Z,4.47
2022-10-03T18:20:59.697Z,4.30
2022-10-03T18:26:19.458Z,5.20
2022-10-03T18:31:19.675Z,5.00
2022-10-03T18:36:46.414Z,4.95
2022-10-03T18:41:47.700Z,4.60
2022-10-03T18:46:50.916Z,4.40
2022-10-03T18:52:13.673Z,3.13
2022-10-03T18:57:33.160Z,3.70
2022-10-03T19:02:47.753Z,3.42
2022-10-03T19:08:11.604Z,3.08
2022-10-03T19:13:30.315Z,3.30
2022-10-03T19:18:41.448Z,2.95
2022-10-03T19:23:43.776Z,3.85
2022-10-03T19:28:48.825Z,3.03
2022-10-03T19:33:51.419Z,3.30
2022-10-03T19:38:49.423Z,3.08
2022-10-03T19:43:52.433Z,3.10
2022-10-03T19:48:58.849Z,3.13
2022-10-03T19:53:58.093Z,2.92
2022-10-03T19:59:12.552Z,2.50
2022-10-03T20:04:10.518Z,3.88
2022-10-03T20:09:29.236Z,4.30
2022-10-03T20:14:33.504Z,4.70
2022-10-03T20:19:38.134Z,3.90
2022-10-03T20:24:39.531Z,4.55
2022-10-03T20:29:48.811Z,3.60
2022-10-03T20:34:53.593Z,3.90
2022-10-03T20:39:52.461Z,3.60
2022-10-03T20:44:56.276Z,3.40
2022-10-03T20:49:58.225Z,3.30
2022-10-03T20:55:01.046Z,3.72
2022-10-03T21:00:24.236Z,3.33
2022-10-03T21:05:33.570Z,3.28
2022-10-03T21:10:37.731Z,3.63
2022-10-03T21:15:51.520Z,3.00
2022-10-03T21:21:17.942Z,2.92
2022-10-03T21:26:23.077Z,2.80
2022-10-03T21:31:46.457Z,2.70
2022-10-03T21:36:46.786Z,2.80
2022-10-03T21:47:21.329Z,3.65
2022-10-03T21:52:24.847Z,3.92
2022-10-03T21:57:34.072Z,2.92
2022-10-03T22:02:43.155Z,2.78
2022-10-03T22:07:42.931Z,2.97
2022-10-03T22:12:48.055Z,3.17
2022-10-03T22:17:53.062Z,3.28
2022-10-03T22:23:08.100Z,3.20
2022-10-03T22:28:23.937Z,3.47
2022-10-03T22:33:34.855Z,4.93
2022-10-03T22:38:36.310Z,3.50
2022-10-03T22:43:38.483Z,4.05
2022-10-03T22:48:43.101Z,4.38
2022-10-03T22:53:50.370Z,3.53
2022-10-03T22:58:48.115Z,3.88
2022-10-03T23:03:45.384Z,4.13
2022-10-03T23:08:55.546Z,3.75
2022-10-03T23:13:54.001Z,3.53
2022-10-03T23:19:18.496Z,3.63
2022-10-03T23:24:33.714Z,4.80
2022-10-03T23:29:30.980Z,2.75
2022-10-03T23:34:40.641Z,3.28
2022-10-03T23:39:40.207Z,3.53
2022-10-03T23:44:49.747Z,4.20
2022-10-03T23:49:48.814Z,3.25
2022-10-03T23:54:48.223Z,3.20
2022-10-03T23:59:47.315Z,3.97
